Terminal Aerodrome Forecast
Issued by NWS

Home | Current Version | Previous Version | Text Only | Print | Product List | Glossary On
Versions: 1 2 3 4 5 6 7 8 9 10 11 12 13 14 15 16
000
FTUS43 KIND 011124
TAFLAF
TAF
KLAF 011124Z 0112/0212 12004KT P6SM BKN005 OVC025
      TEMPO 0112/0115 4SM -SHRA BR SCT005 OVC025
     FM011500 16006KT P6SM SCT015 BKN040
     FM011700 19007KT P6SM VCTS SCT025CB BKN040
      TEMPO 0118/0122 4SM SHRA OVC025
     FM020100 21004KT P6SM SCT040 BKN080
     FM020900 26004KT P6SM BKN012
      AMD LTD TO CLD VIS AND WIND TIL 011300=

USA.gov is the U.S. government's official web portal to all federal, state and local government web resources and services.